Nelson, Canada
Current Conditions -  °F | °C
As of 11:00 AM on Saturday 25 Oct 2014 (Local Time) from CYCG Reporting Station
Scattered Clouds Scattered Clouds  
Wind Chill: 50°   Ceiling: Unl
Heat Index: 50°   Visibility: 15mi
Dew Point: 41°   Wind: 7mph
Humidity: 71%   Direction: 350°N
Pressure: 29.7"   Gusts: NA
Location:  49.48°N, 117.28°W
Report Text: CYCG 251800Z 35006KT 15SM FEW020 FEW180 SCT270 10/05 A2970 RMK SF1AC1CI2 SLP065
Loading
Personal Weather Stations






























Interactive Weather Map
Tropical Storm Tracking
New forecast layout! Learn more

10-Day Weather Forecast

Advertisements
Track Severe Weather on mobile